Jordan, Wisconsin
Current Conditions -  °F | °C
As of 10:15 PM on Wednesday 26 Nov 2014 (Local Time) from KSTE Reporting Station
Overcast Overcast  
Wind Chill: 14°   Ceiling: 3300
Heat Index: 20°   Visibility: 10mi
Dew Point: 18°   Wind: 5mph
Humidity: 91%   Direction: 310°NW
Pressure: 30.19"   Gusts: NA
Location:  44.5531°N, 89.5186°W
Report Text: KSTE 270415Z AUTO 31004KT 10SM OVC033 M06/M08 A3019 RMK AO2 T10651077
Loading
Personal Weather Stations






























Interactive Weather Map New forecast layout! Learn more

10-Day Weather Forecast

Advertisements
Track Severe Weather on mobile